Terminal Aerodrome Forecast
Issued by NWS

Home | Current Version | Previous Version | Text Only | Print | Product List | Glossary On
Versions: 1 2 3 4 5 6 7 8 9 10 11 12 13 14 15
000
FTUS46 KSEW 201700 RRA
TAFOLM
TAF
KOLM 201746Z 2018/2118 VRB06KT P6SM BKN025 OVC035
     FM202000 21006KT P6SM BKN035
     FM202200 23006KT P6SM SCT040
     FM210800 20004KT P6SM BKN020
     FM211200 21003KT P6SM OVC015=

USA.gov is the U.S. government's official web portal to all federal, state and local government web resources and services.